Time;durP1;ratioP1;P1;durP2;ratioP2;P2;SDS_P1;SDS_P2;PMS_P1;PMS_P2;Temp;Humidity;BMP_temperature;BMP_pressure;BME280_temperature;BME280_humidity;BME280_pressure;Samples;Min_cycle;Max_cycle;Signal;HPM_P1;HPM_P2
2021/11/13 00:19:34;;;;;;;6.18;5.03;;;;;;;;;;4465984;28;20088;-65
2021/11/13 00:22:00;;;;;;;5.45;4.90;;;;;;;;;;4222375;33;20189;-63
2021/11/13 00:24:26;;;;;;;5.12;4.68;;;;;;;;;;4202071;34;20102;-64
2021/11/13 00:26:52;;;;;;;6.10;5.53;;;;;;;;;;4219673;34;20121;-64
2021/11/13 00:29:18;;;;;;;5.40;4.90;;;;;;;;;;4211899;33;20121;-65
2021/11/13 00:31:44;;;;;;;5.95;5.00;;;;;;;;;;4205889;34;20125;-63
2021/11/13 00:34:10;;;;;;;5.90;5.40;;;;;;;;;;4192465;34;20113;-63
2021/11/13 00:36:35;;;;;;;6.10;5.50;;;;;;;;;;4193025;34;20109;-63
2021/11/13 00:39:02;;;;;;;5.85;5.35;;;;;;;;;;4219414;33;20560;-65
2021/11/13 00:41:27;;;;;;;6.07;5.12;;;;;;;;;;4219358;34;20221;-65
2021/11/13 00:43:53;;;;;;;6.12;5.43;;;;;;;;;;4219539;33;20184;-65
2021/11/13 00:46:19;;;;;;;6.07;5.50;;;;;;;;;;4218899;34;20216;-64
2021/11/13 00:48:45;;;;;;;5.55;5.05;;;;;;;;;;4219461;33;20114;-65
2021/11/13 00:51:11;;;;;;;5.90;5.30;;;;;;;;;;4219315;34;20731;-65
2021/11/13 00:53:37;;;;;;;5.70;5.20;;;;;;;;;;4206102;34;20106;-65
2021/11/13 00:56:03;;;;;;;5.32;4.87;;;;;;;;;;4205625;34;20125;-66
2021/11/13 00:58:28;;;;;;;5.40;4.90;;;;;;;;;;4205407;34;20105;-65
2021/11/13 01:00:54;;;;;;;5.53;5.00;;;;;;;;;;4205287;34;20217;-67
2021/11/13 01:03:20;;;;;;;5.00;4.60;;;;;;;;;;4205434;34;20124;-66
2021/11/13 01:05:46;;;;;;;5.85;4.28;;;;;;;;;;4192466;34;20113;-66
2021/11/13 01:08:12;;;;;;;5.30;4.80;;;;;;;;;;4205409;34;20197;-65
2021/11/13 01:10:38;;;;;;;5.35;4.85;;;;;;;;;;4192249;34;20109;-65
2021/11/13 01:13:04;;;;;;;5.18;4.68;;;;;;;;;;4205567;34;20102;-65
2021/11/13 01:15:30;;;;;;;5.03;4.53;;;;;;;;;;4192375;34;20154;-65
2021/11/13 01:17:56;;;;;;;4.90;4.40;;;;;;;;;;4192536;34;20192;-66
2021/11/13 01:20:24;;;;;;;4.75;4.32;;;;;;;;;;4206299;34;20105;-67
2021/11/13 01:22:49;;;;;;;4.93;4.43;;;;;;;;;;4195039;34;20106;-65
2021/11/13 01:25:15;;;;;;;4.82;4.37;;;;;;;;;;4206065;34;20109;-65
2021/11/13 01:27:41;;;;;;;4.50;4.10;;;;;;;;;;4206061;34;20504;-66
2021/11/13 01:30:08;;;;;;;3.97;3.58;;;;;;;;;;4194458;34;20326;-66
2021/11/13 01:32:35;;;;;;;4.78;4.07;;;;;;;;;;4219152;34;20112;-64
2021/11/13 01:35:00;;;;;;;4.10;3.70;;;;;;;;;;4218833;34;20450;-63
2021/11/13 01:37:26;;;;;;;4.30;3.90;;;;;;;;;;4219040;34;20133;-65
2021/11/13 01:39:52;;;;;;;4.20;3.80;;;;;;;;;;4218882;34;20121;-65
2021/11/13 01:42:18;;;;;;;3.42;3.12;;;;;;;;;;4219025;34;20208;-66
2021/11/13 01:44:44;;;;;;;3.92;3.53;;;;;;;;;;4206087;34;20200;-67
2021/11/13 01:47:10;;;;;;;4.22;3.83;;;;;;;;;;4170977;34;20105;-66
2021/11/13 01:49:37;;;;;;;3.70;3.30;;;;;;;;;;4205802;34;20124;-66
2021/11/13 01:52:12;;;;;;;3.40;3.10;;;;;;;;;;4183087;34;20098;-66
2021/11/13 01:54:40;;;;;;;3.42;3.12;;;;;;;;;;4206023;34;20193;-66
2021/11/13 01:57:09;;;;;;;3.25;2.95;;;;;;;;;;4206283;34;20473;-65
2021/11/13 01:59:39;;;;;;;3.50;3.20;;;;;;;;;;4171935;34;20102;-66
2021/11/13 02:02:05;;;;;;;3.25;2.95;;;;;;;;;;4205857;34;20103;-65
2021/11/13 02:04:31;;;;;;;3.45;3.15;;;;;;;;;;4205842;34;20117;-66
2021/11/13 02:06:57;;;;;;;3.53;3.22;;;;;;;;;;4218876;34;20217;-66
2021/11/13 02:09:24;;;;;;;3.00;2.80;;;;;;;;;;4194364;34;20466;-64
2021/11/13 02:11:49;;;;;;;3.30;2.97;;;;;;;;;;4194078;34;20517;-65
2021/11/13 02:14:15;;;;;;;3.62;3.30;;;;;;;;;;4218997;33;20189;-63
2021/11/13 02:16:41;;;;;;;3.20;2.90;;;;;;;;;;4218573;34;20132;-66
2021/11/13 02:19:07;;;;;;;2.97;2.75;;;;;;;;;;4218701;33;20116;-63
2021/11/13 02:21:34;;;;;;;3.47;3.17;;;;;;;;;;4171145;34;20104;-65
2021/11/13 02:23:59;;;;;;;3.75;2.90;;;;;;;;;;4218677;34;20107;-65
2021/11/13 02:26:25;;;;;;;3.00;2.80;;;;;;;;;;4218546;34;20133;-65
2021/11/13 02:28:54;;;;;;;3.75;3.45;;;;;;;;;;4205984;34;20676;-66
2021/11/13 02:31:27;;;;;;;3.33;3.03;;;;;;;;;;4218453;34;20124;-66
2021/11/13 02:33:53;;;;;;;3.20;2.90;;;;;;;;;;4218510;34;20129;-66
2021/11/13 02:36:19;;;;;;;3.22;2.92;;;;;;;;;;4218472;34;20116;-66
2021/11/13 02:38:45;;;;;;;3.25;2.95;;;;;;;;;;4218538;34;20215;-66
2021/11/13 02:41:11;;;;;;;2.72;2.53;;;;;;;;;;4193867;34;20117;-66
2021/11/13 02:43:37;;;;;;;3.08;2.78;;;;;;;;;;4194038;34;20144;-66
2021/11/13 02:46:04;;;;;;;2.87;2.67;;;;;;;;;;4218135;34;20117;-65
2021/11/13 02:48:32;;;;;;;3.05;2.78;;;;;;;;;;4218643;34;20193;-65
2021/11/13 02:50:58;;;;;;;3.20;2.90;;;;;;;;;;4205362;34;20133;-65
2021/11/13 02:53:26;;;;;;;2.33;2.12;;;;;;;;;;4218241;34;20108;-65
2021/11/13 02:55:53;;;;;;;2.20;2.00;;;;;;;;;;4218226;34;20208;-65
2021/11/13 02:58:20;;;;;;;2.58;2.37;;;;;;;;;;4218200;34;20105;-67
2021/11/13 03:00:52;;;;;;;2.47;2.28;;;;;;;;;;4205424;34;20478;-67
2021/11/13 03:03:19;;;;;;;2.40;2.20;;;;;;;;;;4218197;34;20546;-67
2021/11/13 03:05:47;;;;;;;2.75;2.22;;;;;;;;;;4218062;34;20141;-67
2021/11/13 03:08:12;;;;;;;1.98;1.87;;;;;;;;;;4218144;34;20133;-67
2021/11/13 03:10:39;;;;;;;2.37;2.00;;;;;;;;;;4218051;34;20128;-67
2021/11/13 03:13:05;;;;;;;2.50;2.30;;;;;;;;;;4205172;34;20465;-66
2021/11/13 03:15:31;;;;;;;2.10;2.00;;;;;;;;;;4205094;34;20121;-67
2021/11/13 03:17:57;;;;;;;2.20;2.00;;;;;;;;;;4218314;34;20121;-66
2021/11/13 03:20:26;;;;;;;1.98;1.80;;;;;;;;;;4218270;34;20136;-67
2021/11/13 03:22:52;;;;;;;2.78;2.12;;;;;;;;;;4217808;34;20196;-65
2021/11/13 03:25:21;;;;;;;2.28;2.08;;;;;;;;;;4205138;34;20116;-66
2021/11/13 03:27:51;;;;;;;2.42;2.22;;;;;;;;;;4217905;34;20189;-66
2021/11/13 03:30:17;;;;;;;2.33;2.12;;;;;;;;;;4204824;34;20183;-67
2021/11/13 03:32:43;;;;;;;2.28;2.08;;;;;;;;;;4218013;34;20181;-67
2021/11/13 03:35:09;;;;;;;2.08;1.98;;;;;;;;;;4193477;34;20113;-67
2021/11/13 03:37:35;;;;;;;2.58;2.37;;;;;;;;;;4217856;34;20097;-67
2021/11/13 03:40:02;;;;;;;3.08;2.30;;;;;;;;;;4217735;34;20130;-67
2021/11/13 03:42:31;;;;;;;2.47;2.28;;;;;;;;;;4193464;34;20133;-64
2021/11/13 03:44:57;;;;;;;2.42;2.20;;;;;;;;;;4218199;34;20191;-65
2021/11/13 03:47:23;;;;;;;2.35;2.15;;;;;;;;;;4204799;34;20110;-65
2021/11/13 03:49:49;;;;;;;2.53;2.33;;;;;;;;;;4218072;34;20193;-64
2021/11/13 03:52:15;;;;;;;2.10;2.00;;;;;;;;;;4217741;34;20122;-64
2021/11/13 03:54:41;;;;;;;2.83;2.30;;;;;;;;;;4217717;34;20133;-65
2021/11/13 03:57:07;;;;;;;2.30;2.10;;;;;;;;;;4217681;34;20542;-65
2021/11/13 03:59:32;;;;;;;2.40;2.20;;;;;;;;;;4217831;34;20529;-65
2021/11/13 04:01:59;;;;;;;2.40;2.20;;;;;;;;;;4217713;34;20102;-65
2021/11/13 04:04:25;;;;;;;2.37;2.03;;;;;;;;;;4204645;34;20090;-66
2021/11/13 04:06:50;;;;;;;2.37;2.17;;;;;;;;;;4217770;34;20120;-66
2021/11/13 04:09:16;;;;;;;3.53;2.40;;;;;;;;;;4205665;34;20147;-66
2021/11/13 04:11:42;;;;;;;2.80;2.55;;;;;;;;;;4219957;34;20128;-66
2021/11/13 04:14:08;;;;;;;2.80;2.60;;;;;;;;;;4206776;34;20193;-66
2021/11/13 04:16:34;;;;;;;2.50;2.30;;;;;;;;;;4219823;34;20500;-63
2021/11/13 04:18:59;;;;;;;3.20;2.90;;;;;;;;;;4219702;34;20537;-65
2021/11/13 04:21:25;;;;;;;3.25;2.95;;;;;;;;;;4206691;34;20513;-65
2021/11/13 04:23:52;;;;;;;3.17;2.87;;;;;;;;;;4220192;34;20481;-66
2021/11/13 04:26:18;;;;;;;3.75;3.37;;;;;;;;;;4219752;34;20115;-66
2021/11/13 04:28:44;;;;;;;3.85;3.40;;;;;;;;;;4219764;34;20113;-66
2021/11/13 04:31:10;;;;;;;16.00;6.00;;;;;;;;;;4206566;34;20193;-66
2021/11/13 04:33:36;;;;;;;7.78;4.93;;;;;;;;;;4219554;34;20121;-65
2021/11/13 04:36:07;;;;;;;6.75;4.62;;;;;;;;;;4219730;34;20224;-64
2021/11/13 04:38:33;;;;;;;5.65;4.78;;;;;;;;;;4207173;34;20241;-63
2021/11/13 04:41:03;;;;;;;4.72;4.32;;;;;;;;;;4206489;34;20536;-65
2021/11/13 04:43:29;;;;;;;4.95;4.45;;;;;;;;;;4219609;34;20098;-65
2021/11/13 04:45:55;;;;;;;5.20;4.70;;;;;;;;;;4219683;34;20131;-65
2021/11/13 04:48:21;;;;;;;4.85;4.37;;;;;;;;;;4206702;34;20124;-64
2021/11/13 04:50:47;;;;;;;4.82;4.43;;;;;;;;;;4206325;34;20244;-65
2021/11/13 04:53:12;;;;;;;5.62;5.03;;;;;;;;;;4219550;34;20173;-64
2021/11/13 04:55:38;;;;;;;6.00;5.40;;;;;;;;;;4206413;34;20141;-63
2021/11/13 04:58:04;;;;;;;6.10;5.50;;;;;;;;;;4219209;34;20192;-63
2021/11/13 05:00:30;;;;;;;5.65;5.15;;;;;;;;;;4206362;34;20105;-65
2021/11/13 05:02:56;;;;;;;5.97;5.40;;;;;;;;;;4219180;34;20117;-64
2021/11/13 05:05:22;;;;;;;5.85;5.35;;;;;;;;;;4219292;34;20116;-63
2021/11/13 05:07:48;;;;;;;6.15;5.55;;;;;;;;;;4206236;34;20109;-65
2021/11/13 05:10:14;;;;;;;6.75;6.05;;;;;;;;;;4219316;34;20133;-64
2021/11/13 05:12:40;;;;;;;6.47;5.87;;;;;;;;;;4194845;34;20121;-64
2021/11/13 05:15:06;;;;;;;6.68;6.05;;;;;;;;;;4206491;34;20093;-63
2021/11/13 05:17:32;;;;;;;6.60;6.00;;;;;;;;;;4194788;34;20115;-65
2021/11/13 05:19:58;;;;;;;7.30;6.22;;;;;;;;;;4218711;34;20086;-63
2021/11/13 05:22:24;;;;;;;7.25;6.65;;;;;;;;;;4209275;34;20101;-64
2021/11/13 05:24:50;;;;;;;7.20;6.50;;;;;;;;;;4219149;33;21081;-63
2021/11/13 05:27:16;;;;;;;7.05;6.32;;;;;;;;;;4217870;34;20128;-62
2021/11/13 05:29:42;;;;;;;6.70;6.05;;;;;;;;;;4219243;33;20538;-61
2021/11/13 05:32:08;;;;;;;7.20;6.60;;;;;;;;;;4218950;34;20110;-60
2021/11/13 05:34:34;;;;;;;7.65;6.95;;;;;;;;;;4219206;33;20121;-60
2021/11/13 05:37:01;;;;;;;8.00;7.20;;;;;;;;;;4218987;33;20120;-61
2021/11/13 05:39:27;;;;;;;7.25;6.35;;;;;;;;;;4217279;33;20101;-59
2021/11/13 05:41:52;;;;;;;7.45;6.70;;;;;;;;;;4218631;34;20111;-60
2021/11/13 05:44:18;;;;;;;7.55;6.85;;;;;;;;;;4218776;33;20217;-60
2021/11/13 05:46:44;;;;;;;8.02;7.32;;;;;;;;;;4218185;33;20144;-60
2021/11/13 05:49:10;;;;;;;7.87;7.18;;;;;;;;;;4217569;33;20738;-59
2021/11/13 05:51:36;;;;;;;8.23;7.43;;;;;;;;;;4218655;33;20094;-59
2021/11/13 05:54:02;;;;;;;7.95;7.25;;;;;;;;;;4218035;33;20101;-59
2021/11/13 05:56:28;;;;;;;7.87;7.18;;;;;;;;;;4218777;33;20127;-59
2021/11/13 05:58:54;;;;;;;7.87;7.18;;;;;;;;;;4219036;33;20102;-58
2021/11/13 06:01:20;;;;;;;8.50;7.18;;;;;;;;;;4218591;34;20443;-59
2021/11/13 06:03:46;;;;;;;9.18;8.27;;;;;;;;;;4217306;33;20211;-59
2021/11/13 06:06:11;;;;;;;7.70;6.95;;;;;;;;;;4218572;34;20124;-59
2021/11/13 06:08:37;;;;;;;9.30;7.68;;;;;;;;;;4218435;33;20305;-59
2021/11/13 06:11:03;;;;;;;8.77;7.93;;;;;;;;;;4218940;34;20529;-59
2021/11/13 06:13:29;;;;;;;8.48;7.78;;;;;;;;;;4218608;33;20112;-58
2021/11/13 06:15:55;;;;;;;8.35;7.60;;;;;;;;;;4205842;34;20121;-59
2021/11/13 06:18:21;;;;;;;8.60;7.80;;;;;;;;;;4217147;33;20098;-59
2021/11/13 06:20:46;;;;;;;8.68;7.87;;;;;;;;;;4218699;34;20106;-59
2021/11/13 06:23:12;;;;;;;8.10;7.30;;;;;;;;;;4218669;33;20235;-61
2021/11/13 06:25:38;;;;;;;8.20;7.45;;;;;;;;;;4218574;34;20115;-59
2021/11/13 06:28:04;;;;;;;8.15;7.37;;;;;;;;;;4218748;34;20490;-59
2021/11/13 06:30:33;;;;;;;8.00;7.20;;;;;;;;;;4213886;34;20109;-59
2021/11/13 06:32:58;;;;;;;8.20;7.47;;;;;;;;;;4216217;34;20198;-60
2021/11/13 06:35:24;;;;;;;9.27;7.00;;;;;;;;;;4204308;34;20105;-58
2021/11/13 06:37:50;;;;;;;9.20;8.40;;;;;;;;;;4205857;34;20133;-65
2021/11/13 06:40:18;;;;;;;8.90;8.10;;;;;;;;;;4204139;34;20118;-64
2021/11/13 06:42:44;;;;;;;9.88;8.93;;;;;;;;;;4204292;34;20671;-64
2021/11/13 06:45:11;;;;;;;8.88;8.02;;;;;;;;;;4204474;34;20086;-64
2021/11/13 06:47:37;;;;;;;9.55;8.65;;;;;;;;;;4203953;34;20193;-65
2021/11/13 06:50:04;;;;;;;10.77;9.70;;;;;;;;;;4204557;34;20114;-64
2021/11/13 06:52:30;;;;;;;9.77;8.88;;;;;;;;;;4185509;34;20133;-65
2021/11/13 06:54:56;;;;;;;10.57;9.48;;;;;;;;;;4217838;33;20144;-65
2021/11/13 06:57:22;;;;;;;10.07;9.18;;;;;;;;;;4192991;34;20450;-65
2021/11/13 06:59:48;;;;;;;9.95;8.95;;;;;;;;;;4203823;34;20133;-64
2021/11/13 07:02:15;;;;;;;10.50;9.60;;;;;;;;;;4191586;34;20116;-66
2021/11/13 07:04:42;;;;;;;10.23;9.32;;;;;;;;;;4191951;34;20121;-65
2021/11/13 07:07:09;;;;;;;9.90;9.10;;;;;;;;;;4169248;34;20094;-68
2021/11/13 07:09:36;;;;;;;10.07;9.07;;;;;;;;;;4204277;34;20208;-66
2021/11/13 07:12:03;;;;;;;9.73;8.88;;;;;;;;;;4179363;34;20113;-65
2021/11/13 07:14:29;;;;;;;9.30;8.50;;;;;;;;;;4204236;34;20149;-66
2021/11/13 07:16:55;;;;;;;9.50;8.70;;;;;;;;;;4204257;34;20102;-65
2021/11/13 07:19:21;;;;;;;8.52;7.72;;;;;;;;;;4179906;34;20110;-63
2021/11/13 07:21:46;;;;;;;9.27;8.48;;;;;;;;;;4206488;34;20116;-65
2021/11/13 07:24:12;;;;;;;8.98;8.18;;;;;;;;;;4217962;34;20109;-65
2021/11/13 07:26:38;;;;;;;9.70;8.80;;;;;;;;;;4190976;34;20126;-64
2021/11/13 07:29:06;;;;;;;8.68;7.93;;;;;;;;;;4191035;34;20184;-65
2021/11/13 07:31:32;;;;;;;9.30;8.50;;;;;;;;;;4210311;34;20188;-64
2021/11/13 07:33:58;;;;;;;9.40;8.50;;;;;;;;;;4181905;34;20173;-64
2021/11/13 07:36:24;;;;;;;9.70;8.70;;;;;;;;;;4193086;34;20473;-64
2021/11/13 07:38:51;;;;;;;9.23;8.38;;;;;;;;;;4217622;33;20114;-65
2021/11/13 07:41:18;;;;;;;9.55;8.55;;;;;;;;;;4217523;34;20132;-64
2021/11/13 07:43:44;;;;;;;10.20;9.30;;;;;;;;;;4217773;33;20119;-65
2021/11/13 07:46:10;;;;;;;11.32;10.23;;;;;;;;;;4219632;34;20267;-64
2021/11/13 07:48:36;;;;;;;10.90;9.80;;;;;;;;;;4219942;33;20136;-64
2021/11/13 07:51:03;;;;;;;10.93;9.93;;;;;;;;;;4219542;34;20135;-63
2021/11/13 07:53:30;;;;;;;12.02;10.77;;;;;;;;;;4218928;33;20141;-63
2021/11/13 07:55:56;;;;;;;11.85;10.63;;;;;;;;;;4220232;34;20120;-61
2021/11/13 07:58:22;;;;;;;11.02;9.93;;;;;;;;;;4219875;33;20098;-63
2021/11/13 08:00:48;;;;;;;10.95;9.95;;;;;;;;;;4219997;34;20136;-61
2021/11/13 08:03:14;;;;;;;10.88;9.80;;;;;;;;;;4207163;33;20596;-61
2021/11/13 08:05:40;;;;;;;11.45;10.35;;;;;;;;;;4219972;34;20132;-61
2021/11/13 08:08:06;;;;;;;11.80;10.70;;;;;;;;;;4218841;33;20117;-59
2021/11/13 08:10:36;;;;;;;12.37;11.18;;;;;;;;;;4219989;34;20145;-61
2021/11/13 08:13:03;;;;;;;11.82;10.63;;;;;;;;;;4219393;33;20189;-60
2021/11/13 08:15:29;;;;;;;12.55;11.35;;;;;;;;;;4220099;34;20121;-60
2021/11/13 08:17:55;;;;;;;11.75;10.55;;;;;;;;;;4219992;33;20646;-61
2021/11/13 08:20:21;;;;;;;13.80;12.60;;;;;;;;;;4219412;34;20125;-61
2021/11/13 08:22:46;;;;;;;13.15;12.00;;;;;;;;;;4217495;34;20137;-60
2021/11/13 08:25:13;;;;;;;14.95;13.60;;;;;;;;;;4193024;34;20621;-61
2021/11/13 08:27:39;;;;;;;14.10;12.85;;;;;;;;;;4217712;34;20110;-61
2021/11/13 08:30:06;;;;;;;14.98;13.62;;;;;;;;;;4204756;34;20227;-61
2021/11/13 08:32:32;;;;;;;15.05;13.68;;;;;;;;;;4205599;34;20241;-60
2021/11/13 08:34:58;;;;;;;14.45;12.93;;;;;;;;;;4218706;34;20125;-63
2021/11/13 08:37:24;;;;;;;15.60;14.10;;;;;;;;;;4219604;34;20581;-62
2021/11/13 08:39:50;;;;;;;14.48;13.13;;;;;;;;;;4219354;34;20137;-61
2021/11/13 08:42:16;;;;;;;14.63;12.82;;;;;;;;;;4219640;34;20117;-59
2021/11/13 08:44:45;;;;;;;14.50;13.00;;;;;;;;;;4206410;34;20125;-60
2021/11/13 08:47:12;;;;;;;14.55;13.05;;;;;;;;;;4219413;34;20109;-61
2021/11/13 08:49:39;;;;;;;15.07;13.57;;;;;;;;;;4206608;34;20090;-61
2021/11/13 08:52:05;;;;;;;4.43;3.08;;;;;;;;;;4219651;34;20128;-61
2021/11/13 08:54:31;;;;;;;21.08;18.80;;;;;;;;;;4219256;34;20549;-60
2021/11/13 08:56:56;;;;;;;15.38;13.98;;;;;;;;;;4219355;34;20130;-60
2021/11/13 08:59:22;;;;;;;15.98;14.43;;;;;;;;;;4219533;34;20108;-60
2021/11/13 09:01:50;;;;;;;15.68;14.27;;;;;;;;;;4219173;34;20490;-60
2021/11/13 09:04:16;;;;;;;15.07;13.65;;;;;;;;;;4219367;34;20137;-61
2021/11/13 09:06:42;;;;;;;15.82;14.15;;;;;;;;;;4219763;34;20101;-67
2021/11/13 09:09:08;;;;;;;16.37;14.68;;;;;;;;;;4219290;34;20545;-68
2021/11/13 09:11:36;;;;;;;17.00;15.35;;;;;;;;;;4219449;34;20109;-67
2021/11/13 09:14:02;;;;;;;15.55;13.88;;;;;;;;;;4219394;34;20441;-67
2021/11/13 09:16:28;;;;;;;14.45;12.80;;;;;;;;;;4219217;34;20544;-68
2021/11/13 09:18:54;;;;;;;16.25;14.65;;;;;;;;;;4219477;34;20210;-68
2021/11/13 09:21:21;;;;;;;15.32;13.73;;;;;;;;;;4218997;34;20433;-66
2021/11/13 09:23:46;;;;;;;17.17;15.43;;;;;;;;;;4206423;34;20116;-67
2021/11/13 09:26:12;;;;;;;16.73;15.25;;;;;;;;;;4219178;34;20093;-68
2021/11/13 09:28:38;;;;;;;16.90;15.13;;;;;;;;;;4219177;34;20101;-68
2021/11/13 09:31:04;;;;;;;15.98;14.30;;;;;;;;;;4219366;34;20125;-67
2021/11/13 09:33:30;;;;;;;18.30;16.17;;;;;;;;;;4219263;34;20204;-70
2021/11/13 09:35:56;;;;;;;18.30;16.50;;;;;;;;;;4219029;34;20131;-69
2021/11/13 09:38:24;;;;;;;18.73;16.98;;;;;;;;;;4206362;34;20105;-68
2021/11/13 09:40:52;;;;;;;19.62;17.73;;;;;;;;;;4205872;34;20136;-71
2021/11/13 09:43:18;;;;;;;18.77;16.98;;;;;;;;;;4206284;34;20137;-70
2021/11/13 09:45:44;;;;;;;18.75;16.87;;;;;;;;;;4206284;34;20121;-70
2021/11/13 09:48:10;;;;;;;19.87;17.30;;;;;;;;;;4219242;34;20136;-70
2021/11/13 09:50:37;;;;;;;18.20;16.30;;;;;;;;;;4194571;34;20445;-71
2021/11/13 09:53:04;;;;;;;17.65;15.77;;;;;;;;;;4219128;34;20124;-72
2021/11/13 09:55:30;;;;;;;18.02;16.02;;;;;;;;;;4206268;34;20213;-71
2021/11/13 09:57:56;;;;;;;18.40;16.52;;;;;;;;;;4218837;34;20514;-72
2021/11/13 10:00:26;;;;;;;19.70;17.70;;;;;;;;;;4218898;34;20125;-66
2021/11/13 10:02:55;;;;;;;19.40;17.40;;;;;;;;;;4205941;34;20243;-66
2021/11/13 10:05:21;;;;;;;19.33;17.45;;;;;;;;;;4218992;34;20116;-67
2021/11/13 10:07:48;;;;;;;19.27;16.65;;;;;;;;;;4205309;34;20600;-66
2021/11/13 10:10:27;;;;;;;17.67;15.82;;;;;;;;;;4206138;34;20545;-66
2021/11/13 10:12:54;;;;;;;18.52;16.73;;;;;;;;;;4207271;34;20224;-62
2021/11/13 10:15:35;;;;;;;16.62;14.85;;;;;;;;;;4218920;34;20132;-65
2021/11/13 10:18:07;;;;;;;19.00;16.75;;;;;;;;;;4215700;33;20106;-67
2021/11/13 10:20:33;;;;;;;19.60;17.80;;;;;;;;;;4218186;34;20175;-65
2021/11/13 10:23:00;;;;;;;18.52;16.85;;;;;;;;;;4217798;33;20100;-65
2021/11/13 10:25:25;;;;;;;18.30;16.40;;;;;;;;;;4218494;34;20101;-66
2021/11/13 10:28:14;;;;;;;18.70;16.85;;;;;;;;;;4204763;34;20133;-65
2021/11/13 10:30:40;;;;;;;17.90;16.10;;;;;;;;;;4205401;34;20524;-65
2021/11/13 10:33:06;;;;;;;17.92;15.93;;;;;;;;;;4218070;33;20197;-66
2021/11/13 10:35:40;;;;;;;18.05;16.25;;;;;;;;;;4217883;34;20204;-65
2021/11/13 10:38:14;;;;;;;17.48;15.70;;;;;;;;;;4218318;33;20125;-66
2021/11/13 10:40:53;;;;;;;18.62;16.70;;;;;;;;;;4218017;34;20124;-64
2021/11/13 10:43:20;;;;;;;16.92;15.13;;;;;;;;;;4205453;34;20431;-63
2021/11/13 10:45:59;;;;;;;16.42;14.32;;;;;;;;;;4205290;34;20521;-65
2021/11/13 10:48:26;;;;;;;20.85;16.50;;;;;;;;;;4217950;33;20101;-67
2021/11/13 10:50:52;;;;;;;18.10;16.37;;;;;;;;;;4220183;33;20144;-66
2021/11/13 10:53:27;;;;;;;18.37;16.33;;;;;;;;;;4205127;34;20128;-65
2021/11/13 10:56:23;;;;;;;18.00;15.63;;;;;;;;;;4205092;34;20118;-65
2021/11/13 10:58:59;;;;;;;18.80;16.80;;;;;;;;;;4208794;34;20130;-66
2021/11/13 11:01:28;;;;;;;17.45;15.88;;;;;;;;;;4218403;34;20129;-69
2021/11/13 11:04:04;;;;;;;17.85;15.95;;;;;;;;;;4217944;33;20139;-67
2021/11/13 11:06:37;;;;;;;16.15;14.55;;;;;;;;;;4195159;34;20109;-65
2021/11/13 11:09:13;;;;;;;16.92;15.23;;;;;;;;;;4218306;34;20094;-63
2021/11/13 11:11:39;;;;;;;17.42;15.82;;;;;;;;;;4218380;34;20546;-64
2021/11/13 11:14:10;;;;;;;17.35;15.65;;;;;;;;;;4218589;34;20181;-64
2021/11/13 11:16:38;;;;;;;16.98;15.27;;;;;;;;;;4218344;34;20090;-64
2021/11/13 11:19:10;;;;;;;16.65;15.07;;;;;;;;;;4217143;34;20121;-65
2021/11/13 11:21:40;;;;;;;17.98;16.25;;;;;;;;;;4217829;34;20167;-64
2021/11/13 11:24:13;;;;;;;17.27;15.68;;;;;;;;;;4217855;33;20094;-64
2021/11/13 11:26:39;;;;;;;18.70;16.83;;;;;;;;;;4193406;34;20225;-65
2021/11/13 11:29:06;;;;;;;17.62;15.82;;;;;;;;;;4218059;33;20121;-65
2021/11/13 11:31:49;;;;;;;18.42;16.52;;;;;;;;;;4205085;34;20133;-65
2021/11/13 11:34:29;;;;;;;18.10;16.33;;;;;;;;;;4217957;33;20136;-68
2021/11/13 11:36:57;;;;;;;18.10;15.85;;;;;;;;;;4218193;34;20101;-69
2021/11/13 11:39:24;;;;;;;15.75;14.25;;;;;;;;;;4217907;33;20186;-69
2021/11/13 11:41:51;;;;;;;16.45;14.85;;;;;;;;;;4217992;34;20125;-67
2021/11/13 11:44:17;;;;;;;17.12;15.30;;;;;;;;;;4218296;33;20209;-68
2021/11/13 11:46:43;;;;;;;16.75;15.05;;;;;;;;;;4221935;33;20102;-68
2021/11/13 11:49:10;;;;;;;15.27;13.68;;;;;;;;;;4224351;33;20108;-68
2021/11/13 11:51:37;;;;;;;17.83;14.40;;;;;;;;;;4205409;34;20129;-67
2021/11/13 11:54:06;;;;;;;14.63;13.05;;;;;;;;;;4217575;33;20120;-68
2021/11/13 11:56:32;;;;;;;16.23;14.63;;;;;;;;;;4217960;34;20112;-69
2021/11/13 11:59:00;;;;;;;14.27;12.02;;;;;;;;;;4217616;33;20201;-66
2021/11/13 12:01:27;;;;;;;16.45;14.05;;;;;;;;;;4204727;34;20106;-69
2021/11/13 12:04:13;;;;;;;15.63;13.95;;;;;;;;;;4217555;33;20116;-70
2021/11/13 12:06:44;;;;;;;16.85;13.90;;;;;;;;;;4217537;34;20443;-73
2021/11/13 12:09:10;;;;;;;16.17;14.48;;;;;;;;;;4217652;33;20114;-71
2021/11/13 12:11:36;;;;;;;14.98;13.52;;;;;;;;;;4217512;34;20112;-75
2021/11/13 12:14:23;;;;;;;15.60;13.40;;;;;;;;;;4217703;33;20144;-68
2021/11/13 12:16:50;;;;;;;14.73;13.32;;;;;;;;;;4204797;34;20208;-71
2021/11/13 12:19:16;;;;;;;15.27;13.68;;;;;;;;;;4217506;33;20579;-75
2021/11/13 12:21:55;;;;;;;15.13;13.35;;;;;;;;;;4217289;34;20157;-71
2021/11/13 12:24:21;;;;;;;14.50;13.02;;;;;;;;;;4217397;34;20196;-70
2021/11/13 12:27:04;;;;;;;14.87;13.38;;;;;;;;;;4192795;34;20125;-69
2021/11/13 12:29:44;;;;;;;15.73;13.50;;;;;;;;;;4217610;34;20179;-71
2021/11/13 12:32:12;;;;;;;15.07;13.48;;;;;;;;;;4219837;34;20535;-71
2021/11/13 12:34:38;;;;;;;14.82;13.35;;;;;;;;;;4207138;34;20243;-73
2021/11/13 12:37:08;;;;;;;15.38;13.85;;;;;;;;;;4219648;34;20542;-72
2021/11/13 12:39:45;;;;;;;16.35;12.95;;;;;;;;;;4219382;34;20204;-71
2021/11/13 12:42:12;;;;;;;15.25;13.65;;;;;;;;;;4206987;34;20238;-72
2021/11/13 12:44:45;;;;;;;15.63;13.50;;;;;;;;;;4219520;34;20109;-72
2021/11/13 12:47:30;;;;;;;16.00;14.10;;;;;;;;;;4219563;34;20204;-72
2021/11/13 12:50:03;;;;;;;15.65;13.18;;;;;;;;;;4195777;34;20117;-71
2021/11/13 12:52:38;;;;;;;14.68;13.18;;;;;;;;;;4219487;34;20102;-71
2021/11/13 12:55:08;;;;;;;;;;;;;;;;;;4219770;34;20090;-69
2021/11/13 12:57:39;;;;;;;14.60;13.10;;;;;;;;;;4206272;34;19969;-68
2021/11/13 13:00:05;;;;;;;16.02;14.38;;;;;;;;;;4183622;34;20124;-69
2021/11/13 13:02:32;;;;;;;15.30;13.90;;;;;;;;;;4219245;34;20105;-70
2021/11/13 13:04:58;;;;;;;16.40;14.25;;;;;;;;;;4219226;34;20130;-70
2021/11/13 13:07:24;;;;;;;15.77;13.07;;;;;;;;;;4195385;34;20117;-71
2021/11/13 13:09:59;;;;;;;14.85;13.30;;;;;;;;;;4206384;34;20114;-71
2021/11/13 13:12:29;;;;;;;;;;;;;;;;;;4184891;34;20112;-70
2021/11/13 13:14:59;;;;;;;13.65;12.23;;;;;;;;;;4195199;34;20403;-71
2021/11/13 13:17:28;;;;;;;12.95;11.57;;;;;;;;;;4195163;34;20109;-70
2021/11/13 13:19:55;;;;;;;13.80;12.43;;;;;;;;;;4183761;34;20098;-70
2021/11/13 13:22:21;;;;;;;13.85;12.45;;;;;;;;;;4219268;34;20109;-71
2021/11/13 13:24:55;;;;;;;14.20;12.65;;;;;;;;;;4194824;34;20133;-70
2021/11/13 13:27:21;;;;;;;14.40;12.23;;;;;;;;;;4206372;34;20125;-72
2021/11/13 13:30:03;;;;;;;13.18;11.82;;;;;;;;;;4206346;34;20121;-70
2021/11/13 13:32:29;;;;;;;13.48;12.10;;;;;;;;;;4194929;34;20126;-70
2021/11/13 13:35:00;;;;;;;13.23;11.60;;;;;;;;;;4219289;34;20105;-72
2021/11/13 13:37:48;;;;;;;12.43;11.12;;;;;;;;;;4206220;34;20460;-72
2021/11/13 13:40:29;;;;;;;14.87;11.50;;;;;;;;;;4219068;34;20140;-72
2021/11/13 13:42:57;;;;;;;11.35;9.93;;;;;;;;;;4218136;34;20451;-67
2021/11/13 13:45:23;;;;;;;14.02;11.50;;;;;;;;;;4219288;34;20631;-67
2021/11/13 13:47:51;;;;;;;13.80;11.50;;;;;;;;;;4218840;34;20096;-66
2021/11/13 13:50:17;;;;;;;14.07;11.12;;;;;;;;;;4218818;34;20094;-68
2021/11/13 13:52:44;;;;;;;13.02;11.63;;;;;;;;;;4218872;34;20193;-67
2021/11/13 13:55:13;;;;;;;12.15;10.93;;;;;;;;;;4218813;34;20141;-69
2021/11/13 13:57:39;;;;;;;13.60;10.82;;;;;;;;;;4218646;34;20207;-68
2021/11/13 14:00:07;;;;;;;12.18;10.88;;;;;;;;;;4215287;34;20165;-72
2021/11/13 14:02:39;;;;;;;12.35;11.05;;;;;;;;;;4204783;34;20097;-66
2021/11/13 14:05:05;;;;;;;12.75;11.43;;;;;;;;;;4192153;34;20427;-67
2021/11/13 14:07:32;;;;;;;12.63;10.85;;;;;;;;;;4204799;34;20116;-65
2021/11/13 14:09:58;;;;;;;12.70;10.02;;;;;;;;;;4204359;34;20285;-65
2021/11/13 14:12:24;;;;;;;10.95;9.85;;;;;;;;;;4204788;34;20117;-74
2021/11/13 14:14:50;;;;;;;14.68;11.57;;;;;;;;;;4204966;34;20133;-66
2021/11/13 14:17:20;;;;;;;15.07;11.27;;;;;;;;;;4205047;34;20517;-66
2021/11/13 14:19:46;;;;;;;12.20;10.90;;;;;;;;;;4192261;34;21015;-65
2021/11/13 14:22:12;;;;;;;12.35;11.05;;;;;;;;;;4196557;34;20124;-64
2021/11/13 14:24:39;;;;;;;13.52;10.23;;;;;;;;;;4205582;34;20485;-66
2021/11/13 14:27:07;;;;;;;12.93;10.25;;;;;;;;;;4205890;34;20117;-65
2021/11/13 14:29:34;;;;;;;13.40;10.30;;;;;;;;;;4218937;34;20116;-65
2021/11/13 14:32:00;;;;;;;12.20;9.85;;;;;;;;;;4218326;34;20148;-65
2021/11/13 14:34:26;;;;;;;12.75;9.88;;;;;;;;;;4218345;34;20548;-69
2021/11/13 14:36:59;;;;;;;11.30;8.75;;;;;;;;;;4205863;34;20502;-67
2021/11/13 14:39:30;;;;;;;10.40;9.02;;;;;;;;;;4218656;34;20090;-66
2021/11/13 14:42:01;;;;;;;11.35;9.50;;;;;;;;;;4218310;34;20120;-74
2021/11/13 14:44:31;;;;;;;10.52;9.43;;;;;;;;;;4218781;34;20108;-70
2021/11/13 14:46:59;;;;;;;11.25;9.43;;;;;;;;;;4205655;34;20097;-65
2021/11/13 14:49:27;;;;;;;10.20;8.57;;;;;;;;;;4205468;34;20100;-66
2021/11/13 14:51:53;;;;;;;9.40;8.20;;;;;;;;;;4218252;34;20113;-67